sensor_id;sensor_type;location;lat;lon;timestamp;temperature;humidity
702;DHT22;334;48.808;9.222;2023-06-22T00:00:10;25.40;1.00
702;DHT22;334;48.808;9.222;2023-06-22T00:01:14;25.40;1.00
702;DHT22;334;48.808;9.222;2023-06-22T00:02:16;25.40;1.00
702;DHT22;334;48.808;9.222;2023-06-22T00:03:18;25.40;1.00
702;DHT22;334;48.808;9.222;2023-06-22T00:04:21;25.40;1.00
702;DHT22;334;48.808;9.222;2023-06-22T00:05:22;25.40;1.00
702;DHT22;334;48.808;9.222;2023-06-22T00:06:24;25.40;1.00
702;DHT22;334;48.808;9.222;2023-06-22T00:07:26;25.30;1.00
702;DHT22;334;48.808;9.222;2023-06-22T00:08:28;25.30;1.00
702;DHT22;334;48.808;9.222;2023-06-22T00:09:31;25.30;1.00
702;DHT22;334;48.808;9.222;2023-06-22T00:10:33;25.30;1.00
702;DHT22;334;48.808;9.222;2023-06-22T00:11:34;25.30;1.00
702;DHT22;334;48.808;9.222;2023-06-22T00:12:36;25.30;1.00
702;DHT22;334;48.808;9.222;2023-06-22T00:13:39;25.30;1.00
702;DHT22;334;48.808;9.222;2023-06-22T00:14:41;25.30;1.00
702;DHT22;334;48.808;9.222;2023-06-22T00:15:43;25.30;1.00
702;DHT22;334;48.808;9.222;2023-06-22T00:16:44;25.20;1.00
702;DHT22;334;48.808;9.222;2023-06-22T00:17:51;25.20;1.00
702;DHT22;334;48.808;9.222;2023-06-22T00:18:52;25.20;1.00
702;DHT22;334;48.808;9.222;2023-06-22T00:19:54;25.20;1.00
702;DHT22;334;48.808;9.222;2023-06-22T00:20:56;25.20;1.00
702;DHT22;334;48.808;9.222;2023-06-22T00:22:00;25.20;1.00
702;DHT22;334;48.808;9.222;2023-06-22T00:23:02;25.20;1.00
702;DHT22;334;48.808;9.222;2023-06-22T00:24:08;25.10;1.00
702;DHT22;334;48.808;9.222;2023-06-22T00:25:10;25.20;1.00
702;DHT22;334;48.808;9.222;2023-06-22T00:26:12;25.20;1.00
702;DHT22;334;48.808;9.222;2023-06-22T00:27:14;25.10;1.00
702;DHT22;334;48.808;9.222;2023-06-22T00:28:16;25.10;1.00
702;DHT22;334;48.808;9.222;2023-06-22T00:29:17;25.10;1.00
702;DHT22;334;48.808;9.222;2023-06-22T00:30:20;25.00;1.00
702;DHT22;334;48.808;9.222;2023-06-22T00:31:21;25.00;1.00
702;DHT22;334;48.808;9.222;2023-06-22T00:32:24;25.00;1.00
702;DHT22;334;48.808;9.222;2023-06-22T00:33:26;25.00;1.00
702;DHT22;334;48.808;9.222;2023-06-22T00:34:27;25.00;1.00
702;DHT22;334;48.808;9.222;2023-06-22T00:35:29;25.00;1.00
702;DHT22;334;48.808;9.222;2023-06-22T00:36:31;25.00;1.00
702;DHT22;334;48.808;9.222;2023-06-22T00:37:33;25.00;1.00
702;DHT22;334;48.808;9.222;2023-06-22T00:38:35;25.00;1.00
702;DHT22;334;48.808;9.222;2023-06-22T00:39:43;25.00;1.00
702;DHT22;334;48.808;9.222;2023-06-22T00:40:45;25.00;1.00
702;DHT22;334;48.808;9.222;2023-06-22T00:41:46;25.00;1.00
702;DHT22;334;48.808;9.222;2023-06-22T00:42:48;25.00;1.00
702;DHT22;334;48.808;9.222;2023-06-22T00:43:50;25.00;1.00
702;DHT22;334;48.808;9.222;2023-06-22T00:44:52;25.00;1.00
702;DHT22;334;48.808;9.222;2023-06-22T00:45:55;24.90;1.00
702;DHT22;334;48.808;9.222;2023-06-22T00:46:58;24.90;1.00
702;DHT22;334;48.808;9.222;2023-06-22T00:48:02;25.00;1.00
702;DHT22;334;48.808;9.222;2023-06-22T00:49:04;24.90;1.00
702;DHT22;334;48.808;9.222;2023-06-22T00:50:07;24.90;1.00
702;DHT22;334;48.808;9.222;2023-06-22T00:51:11;24.90;1.00
702;DHT22;334;48.808;9.222;2023-06-22T00:52:13;24.90;1.00
702;DHT22;334;48.808;9.222;2023-06-22T00:53:15;24.90;1.00
702;DHT22;334;48.808;9.222;2023-06-22T00:54:19;24.80;1.00
702;DHT22;334;48.808;9.222;2023-06-22T00:55:27;24.80;1.00
702;DHT22;334;48.808;9.222;2023-06-22T00:56:29;24.80;1.00
702;DHT22;334;48.808;9.222;2023-06-22T00:57:32;24.80;1.00
702;DHT22;334;48.808;9.222;2023-06-22T00:58:33;24.80;1.00
702;DHT22;334;48.808;9.222;2023-06-22T00:59:38;24.70;1.00
702;DHT22;334;48.808;9.222;2023-06-22T01:00:41;24.70;1.00
702;DHT22;334;48.808;9.222;2023-06-22T01:01:43;24.60;1.00
702;DHT22;334;48.808;9.222;2023-06-22T01:02:45;24.60;1.00
702;DHT22;334;48.808;9.222;2023-06-22T01:03:47;24.60;1.00
702;DHT22;334;48.808;9.222;2023-06-22T01:04:49;24.60;1.00
702;DHT22;334;48.808;9.222;2023-06-22T01:05:51;24.60;1.00
702;DHT22;334;48.808;9.222;2023-06-22T01:07:22;24.60;1.00
702;DHT22;334;48.808;9.222;2023-06-22T01:08:51;24.60;1.00
702;DHT22;334;48.808;9.222;2023-06-22T01:10:14;24.60;1.00
702;DHT22;334;48.808;9.222;2023-06-22T01:11:20;24.60;1.00
702;DHT22;334;48.808;9.222;2023-06-22T01:12:24;24.60;1.00
702;DHT22;334;48.808;9.222;2023-06-22T01:14:43;24.50;1.00
702;DHT22;334;48.808;9.222;2023-06-22T01:15:53;24.50;1.00
702;DHT22;334;48.808;9.222;2023-06-22T01:16:59;24.50;1.00
702;DHT22;334;48.808;9.222;2023-06-22T01:18:04;24.40;1.00
702;DHT22;334;48.808;9.222;2023-06-22T01:20:20;24.50;1.00
702;DHT22;334;48.808;9.222;2023-06-22T01:21:26;24.50;1.00
702;DHT22;334;48.808;9.222;2023-06-22T01:22:31;24.50;1.00
702;DHT22;334;48.808;9.222;2023-06-22T01:25:13;24.40;1.00
702;DHT22;334;48.808;9.222;2023-06-22T01:26:40;24.40;1.00
702;DHT22;334;48.808;9.222;2023-06-22T01:28:51;24.30;1.00
702;DHT22;334;48.808;9.222;2023-06-22T01:29:56;24.30;1.00
702;DHT22;334;48.808;9.222;2023-06-22T01:31:02;24.30;1.00
702;DHT22;334;48.808;9.222;2023-06-22T01:32:08;24.30;1.00
702;DHT22;334;48.808;9.222;2023-06-22T01:33:11;24.30;1.00
702;DHT22;334;48.808;9.222;2023-06-22T01:34:15;24.30;1.00
702;DHT22;334;48.808;9.222;2023-06-22T01:35:19;24.30;1.00
702;DHT22;334;48.808;9.222;2023-06-22T01:36:22;24.30;1.00
702;DHT22;334;48.808;9.222;2023-06-22T01:37:24;24.30;1.00
702;DHT22;334;48.808;9.222;2023-06-22T01:38:28;24.30;1.00
702;DHT22;334;48.808;9.222;2023-06-22T01:39:31;24.30;1.00
702;DHT22;334;48.808;9.222;2023-06-22T01:40:34;24.30;1.00
702;DHT22;334;48.808;9.222;2023-06-22T01:41:37;24.30;1.00
702;DHT22;334;48.808;9.222;2023-06-22T01:42:39;24.30;1.00
702;DHT22;334;48.808;9.222;2023-06-22T01:43:41;24.30;1.00
702;DHT22;334;48.808;9.222;2023-06-22T01:44:44;24.30;1.00
702;DHT22;334;48.808;9.222;2023-06-22T01:45:47;24.30;1.00
702;DHT22;334;48.808;9.222;2023-06-22T01:46:49;24.30;1.00
702;DHT22;334;48.808;9.222;2023-06-22T01:47:54;24.30;1.00
702;DHT22;334;48.808;9.222;2023-06-22T01:48:57;24.30;1.00
702;DHT22;334;48.808;9.222;2023-06-22T01:49:59;24.30;1.00
702;DHT22;334;48.808;9.222;2023-06-22T01:51:02;24.30;1.00
702;DHT22;334;48.808;9.222;2023-06-22T01:52:04;24.30;1.00
702;DHT22;334;48.808;9.222;2023-06-22T01:53:06;24.30;1.00
702;DHT22;334;48.808;9.222;2023-06-22T01:54:08;24.30;1.00
702;DHT22;334;48.808;9.222;2023-06-22T01:55:10;24.30;1.00
702;DHT22;334;48.808;9.222;2023-06-22T01:56:12;24.30;1.00
702;DHT22;334;48.808;9.222;2023-06-22T01:57:14;24.30;1.00
702;DHT22;334;48.808;9.222;2023-06-22T01:58:21;24.30;1.00
702;DHT22;334;48.808;9.222;2023-06-22T01:59:48;24.30;1.00
702;DHT22;334;48.808;9.222;2023-06-22T02:01:20;24.40;1.00
702;DHT22;334;48.808;9.222;2023-06-22T02:02:24;24.40;1.00
702;DHT22;334;48.808;9.222;2023-06-22T02:03:34;24.30;1.00
702;DHT22;334;48.808;9.222;2023-06-22T02:04:51;24.30;1.00
702;DHT22;334;48.808;9.222;2023-06-22T02:06:01;24.30;1.00
702;DHT22;334;48.808;9.222;2023-06-22T02:07:07;24.30;1.00
702;DHT22;334;48.808;9.222;2023-06-22T02:08:16;24.30;1.00
702;DHT22;334;48.808;9.222;2023-06-22T02:09:21;24.20;1.00
702;DHT22;334;48.808;9.222;2023-06-22T02:10:24;24.30;1.00
702;DHT22;334;48.808;9.222;2023-06-22T02:11:29;24.20;1.00
702;DHT22;334;48.808;9.222;2023-06-22T02:12:32;24.30;1.00
702;DHT22;334;48.808;9.222;2023-06-22T02:13:36;24.20;1.00
702;DHT22;334;48.808;9.222;2023-06-22T02:14:39;24.20;1.00
702;DHT22;334;48.808;9.222;2023-06-22T02:15:49;24.20;1.00
702;DHT22;334;48.808;9.222;2023-06-22T02:16:51;24.20;1.00
702;DHT22;334;48.808;9.222;2023-06-22T02:17:54;24.20;1.00
702;DHT22;334;48.808;9.222;2023-06-22T02:18:55;24.20;1.00
702;DHT22;334;48.808;9.222;2023-06-22T02:20:00;24.20;1.00
702;DHT22;334;48.808;9.222;2023-06-22T02:21:03;24.20;1.00
702;DHT22;334;48.808;9.222;2023-06-22T02:22:05;24.20;1.00
702;DHT22;334;48.808;9.222;2023-06-22T02:23:07;24.20;1.00
702;DHT22;334;48.808;9.222;2023-06-22T02:24:09;24.20;1.00
702;DHT22;334;48.808;9.222;2023-06-22T02:25:10;24.20;1.00
702;DHT22;334;48.808;9.222;2023-06-22T02:26:13;24.20;1.00
702;DHT22;334;48.808;9.222;2023-06-22T02:27:15;24.20;1.00
702;DHT22;334;48.808;9.222;2023-06-22T02:28:17;24.20;1.00
702;DHT22;334;48.808;9.222;2023-06-22T02:29:19;24.20;1.00
702;DHT22;334;48.808;9.222;2023-06-22T02:30:21;24.20;1.00
702;DHT22;334;48.808;9.222;2023-06-22T02:31:23;24.20;1.00
702;DHT22;334;48.808;9.222;2023-06-22T02:32:32;24.10;1.00
702;DHT22;334;48.808;9.222;2023-06-22T02:33:35;24.10;1.00
702;DHT22;334;48.808;9.222;2023-06-22T02:34:37;24.10;1.00
702;DHT22;334;48.808;9.222;2023-06-22T02:35:39;24.10;1.00
702;DHT22;334;48.808;9.222;2023-06-22T02:36:41;24.10;1.00
702;DHT22;334;48.808;9.222;2023-06-22T02:37:53;24.10;1.00
702;DHT22;334;48.808;9.222;2023-06-22T02:38:55;24.10;1.00
702;DHT22;334;48.808;9.222;2023-06-22T02:40:02;24.10;1.00
702;DHT22;334;48.808;9.222;2023-06-22T02:41:05;24.10;1.00
702;DHT22;334;48.808;9.222;2023-06-22T02:42:08;24.10;1.00
702;DHT22;334;48.808;9.222;2023-06-22T02:43:12;24.10;1.00
702;DHT22;334;48.808;9.222;2023-06-22T02:44:14;24.10;1.00
702;DHT22;334;48.808;9.222;2023-06-22T02:45:16;24.00;1.00
702;DHT22;334;48.808;9.222;2023-06-22T02:46:18;24.00;1.00
702;DHT22;334;48.808;9.222;2023-06-22T02:47:20;24.00;1.00
702;DHT22;334;48.808;9.222;2023-06-22T02:48:22;24.00;1.00
702;DHT22;334;48.808;9.222;2023-06-22T02:49:24;23.90;1.00
702;DHT22;334;48.808;9.222;2023-06-22T02:50:26;23.90;1.00
702;DHT22;334;48.808;9.222;2023-06-22T02:51:32;23.90;1.00
702;DHT22;334;48.808;9.222;2023-06-22T02:52:35;23.80;1.00
702;DHT22;334;48.808;9.222;2023-06-22T02:53:37;23.80;1.00
702;DHT22;334;48.808;9.222;2023-06-22T02:54:39;23.80;1.00
702;DHT22;334;48.808;9.222;2023-06-22T02:55:40;23.80;1.00
702;DHT22;334;48.808;9.222;2023-06-22T02:56:43;23.80;1.00
702;DHT22;334;48.808;9.222;2023-06-22T02:57:48;23.80;1.00
702;DHT22;334;48.808;9.222;2023-06-22T02:58:54;23.80;1.00
702;DHT22;334;48.808;9.222;2023-06-22T02:59:56;23.80;1.00
702;DHT22;334;48.808;9.222;2023-06-22T03:00:57;23.80;1.00
702;DHT22;334;48.808;9.222;2023-06-22T03:01:59;23.80;1.00
702;DHT22;334;48.808;9.222;2023-06-22T03:03:02;23.80;1.00
702;DHT22;334;48.808;9.222;2023-06-22T03:04:04;23.80;1.00
702;DHT22;334;48.808;9.222;2023-06-22T03:05:06;23.80;1.00
702;DHT22;334;48.808;9.222;2023-06-22T03:06:08;23.80;1.00
702;DHT22;334;48.808;9.222;2023-06-22T03:07:16;23.80;1.00
702;DHT22;334;48.808;9.222;2023-06-22T03:08:19;23.80;1.00
702;DHT22;334;48.808;9.222;2023-06-22T03:09:21;23.80;1.00
702;DHT22;334;48.808;9.222;2023-06-22T03:10:23;23.80;1.00
702;DHT22;334;48.808;9.222;2023-06-22T03:11:24;23.80;1.00
702;DHT22;334;48.808;9.222;2023-06-22T03:12:26;23.80;1.00
702;DHT22;334;48.808;9.222;2023-06-22T03:13:28;23.80;1.00
702;DHT22;334;48.808;9.222;2023-06-22T03:14:30;23.70;1.00
702;DHT22;334;48.808;9.222;2023-06-22T03:15:33;23.70;1.00
702;DHT22;334;48.808;9.222;2023-06-22T03:16:34;23.70;1.00
702;DHT22;334;48.808;9.222;2023-06-22T03:17:38;23.70;1.00
702;DHT22;334;48.808;9.222;2023-06-22T03:18:43;23.70;1.00
702;DHT22;334;48.808;9.222;2023-06-22T03:19:45;23.70;1.00
702;DHT22;334;48.808;9.222;2023-06-22T03:20:47;23.60;1.00
702;DHT22;334;48.808;9.222;2023-06-22T03:21:49;23.60;1.00
702;DHT22;334;48.808;9.222;2023-06-22T03:22:50;23.60;1.00
702;DHT22;334;48.808;9.222;2023-06-22T03:23:52;23.60;1.00
702;DHT22;334;48.808;9.222;2023-06-22T03:24:54;23.60;1.00
702;DHT22;334;48.808;9.222;2023-06-22T03:25:56;23.50;1.00
702;DHT22;334;48.808;9.222;2023-06-22T03:26:58;23.50;1.00
702;DHT22;334;48.808;9.222;2023-06-22T03:27:59;23.50;1.00
702;DHT22;334;48.808;9.222;2023-06-22T03:29:02;23.50;1.00
702;DHT22;334;48.808;9.222;2023-06-22T03:30:08;23.60;1.00
702;DHT22;334;48.808;9.222;2023-06-22T03:31:10;23.50;1.00
702;DHT22;334;48.808;9.222;2023-06-22T03:32:12;23.50;1.00
702;DHT22;334;48.808;9.222;2023-06-22T03:33:14;23.50;1.00
702;DHT22;334;48.808;9.222;2023-06-22T03:34:16;23.50;1.00
702;DHT22;334;48.808;9.222;2023-06-22T03:35:17;23.50;1.00
702;DHT22;334;48.808;9.222;2023-06-22T03:36:19;23.50;1.00
702;DHT22;334;48.808;9.222;2023-06-22T03:37:21;23.50;1.00
702;DHT22;334;48.808;9.222;2023-06-22T03:38:23;23.50;1.00
702;DHT22;334;48.808;9.222;2023-06-22T03:39:25;23.50;1.00
702;DHT22;334;48.808;9.222;2023-06-22T03:40:26;23.40;1.00
702;DHT22;334;48.808;9.222;2023-06-22T03:41:29;23.40;1.00
702;DHT22;334;48.808;9.222;2023-06-22T03:42:30;23.40;1.00
702;DHT22;334;48.808;9.222;2023-06-22T03:43:32;23.40;1.00
702;DHT22;334;48.808;9.222;2023-06-22T03:44:35;23.40;1.00
702;DHT22;334;48.808;9.222;2023-06-22T03:45:37;23.30;1.00
702;DHT22;334;48.808;9.222;2023-06-22T03:46:39;23.30;1.00
702;DHT22;334;48.808;9.222;2023-06-22T03:47:41;23.30;1.00
702;DHT22;334;48.808;9.222;2023-06-22T03:48:43;23.30;1.00
702;DHT22;334;48.808;9.222;2023-06-22T03:49:45;23.30;1.00
702;DHT22;334;48.808;9.222;2023-06-22T03:50:46;23.30;1.00
702;DHT22;334;48.808;9.222;2023-06-22T03:51:48;23.30;1.00
702;DHT22;334;48.808;9.222;2023-06-22T03:52:50;23.30;1.00
702;DHT22;334;48.808;9.222;2023-06-22T03:53:55;23.20;1.00
702;DHT22;334;48.808;9.222;2023-06-22T03:54:59;23.30;1.00
702;DHT22;334;48.808;9.222;2023-06-22T03:56:01;23.30;1.00
702;DHT22;334;48.808;9.222;2023-06-22T03:57:03;23.30;1.00
702;DHT22;334;48.808;9.222;2023-06-22T03:58:04;23.30;1.00
702;DHT22;334;48.808;9.222;2023-06-22T03:59:07;23.30;1.00
702;DHT22;334;48.808;9.222;2023-06-22T04:00:09;23.30;1.00
702;DHT22;334;48.808;9.222;2023-06-22T04:01:12;23.30;1.00
702;DHT22;334;48.808;9.222;2023-06-22T04:02:13;23.30;1.00
702;DHT22;334;48.808;9.222;2023-06-22T04:03:15;23.40;1.00
702;DHT22;334;48.808;9.222;2023-06-22T04:04:18;23.40;1.00
702;DHT22;334;48.808;9.222;2023-06-22T04:05:21;23.40;1.00
702;DHT22;334;48.808;9.222;2023-06-22T04:06:22;23.40;1.00
702;DHT22;334;48.808;9.222;2023-06-22T04:07:24;23.40;1.00
702;DHT22;334;48.808;9.222;2023-06-22T04:08:26;23.40;1.00
702;DHT22;334;48.808;9.222;2023-06-22T04:09:28;23.40;1.00
702;DHT22;334;48.808;9.222;2023-06-22T04:10:30;23.30;1.00
702;DHT22;334;48.808;9.222;2023-06-22T04:11:32;23.30;1.00
702;DHT22;334;48.808;9.222;2023-06-22T04:12:34;23.30;1.00
702;DHT22;334;48.808;9.222;2023-06-22T04:13:36;23.30;1.00
702;DHT22;334;48.808;9.222;2023-06-22T04:14:38;23.20;1.00
702;DHT22;334;48.808;9.222;2023-06-22T04:15:47;23.20;1.00
702;DHT22;334;48.808;9.222;2023-06-22T04:16:52;23.10;1.00
702;DHT22;334;48.808;9.222;2023-06-22T04:17:55;23.10;1.00
702;DHT22;334;48.808;9.222;2023-06-22T04:18:57;23.10;1.00
702;DHT22;334;48.808;9.222;2023-06-22T04:19:59;23.20;1.00
702;DHT22;334;48.808;9.222;2023-06-22T04:21:02;23.20;1.00
702;DHT22;334;48.808;9.222;2023-06-22T04:22:04;23.20;1.00
702;DHT22;334;48.808;9.222;2023-06-22T04:23:06;23.20;1.00
702;DHT22;334;48.808;9.222;2023-06-22T04:24:08;23.30;1.00
702;DHT22;334;48.808;9.222;2023-06-22T04:25:10;23.30;1.00
702;DHT22;334;48.808;9.222;2023-06-22T04:26:12;23.30;1.00
702;DHT22;334;48.808;9.222;2023-06-22T04:27:16;23.30;1.00
702;DHT22;334;48.808;9.222;2023-06-22T04:28:20;23.40;1.00
702;DHT22;334;48.808;9.222;2023-06-22T04:29:22;23.40;1.00
702;DHT22;334;48.808;9.222;2023-06-22T04:30:32;23.40;1.00
702;DHT22;334;48.808;9.222;2023-06-22T04:31:34;23.50;1.00
702;DHT22;334;48.808;9.222;2023-06-22T04:32:41;23.50;1.00
702;DHT22;334;48.808;9.222;2023-06-22T04:33:43;23.50;1.00
702;DHT22;334;48.808;9.222;2023-06-22T04:34:44;23.50;1.00
702;DHT22;334;48.808;9.222;2023-06-22T04:35:46;23.50;1.00
702;DHT22;334;48.808;9.222;2023-06-22T04:36:48;23.50;1.00
702;DHT22;334;48.808;9.222;2023-06-22T04:37:53;23.60;1.00
702;DHT22;334;48.808;9.222;2023-06-22T04:38:57;23.60;1.00
702;DHT22;334;48.808;9.222;2023-06-22T04:39:59;23.60;1.00
702;DHT22;334;48.808;9.222;2023-06-22T04:41:03;23.60;1.00
702;DHT22;334;48.808;9.222;2023-06-22T04:42:05;23.60;1.00
702;DHT22;334;48.808;9.222;2023-06-22T04:43:07;23.60;1.00
702;DHT22;334;48.808;9.222;2023-06-22T04:44:15;23.60;1.00
702;DHT22;334;48.808;9.222;2023-06-22T04:45:26;23.60;1.00
702;DHT22;334;48.808;9.222;2023-06-22T04:46:28;23.60;1.00
702;DHT22;334;48.808;9.222;2023-06-22T04:47:29;23.70;1.00
702;DHT22;334;48.808;9.222;2023-06-22T04:48:31;23.70;1.00
702;DHT22;334;48.808;9.222;2023-06-22T04:49:36;23.70;1.00
702;DHT22;334;48.808;9.222;2023-06-22T04:50:38;23.70;1.00
702;DHT22;334;48.808;9.222;2023-06-22T04:51:42;23.70;1.00
702;DHT22;334;48.808;9.222;2023-06-22T04:52:44;23.70;1.00
702;DHT22;334;48.808;9.222;2023-06-22T04:53:47;23.80;1.00
702;DHT22;334;48.808;9.222;2023-06-22T04:54:49;23.70;1.00
702;DHT22;334;48.808;9.222;2023-06-22T04:55:57;23.70;1.00
702;DHT22;334;48.808;9.222;2023-06-22T04:57:00;23.80;1.00
702;DHT22;334;48.808;9.222;2023-06-22T04:58:02;23.70;1.00
702;DHT22;334;48.808;9.222;2023-06-22T04:59:07;23.80;1.00
702;DHT22;334;48.808;9.222;2023-06-22T05:00:09;23.80;1.00
702;DHT22;334;48.808;9.222;2023-06-22T05:01:26;23.80;1.00
702;DHT22;334;48.808;9.222;2023-06-22T05:02:28;23.80;1.00
702;DHT22;334;48.808;9.222;2023-06-22T05:03:33;23.80;1.00
702;DHT22;334;48.808;9.222;2023-06-22T05:04:38;23.90;1.00
702;DHT22;334;48.808;9.222;2023-06-22T05:05:41;23.90;1.00
702;DHT22;334;48.808;9.222;2023-06-22T05:06:43;23.90;1.00
702;DHT22;334;48.808;9.222;2023-06-22T05:07:46;23.90;1.00
702;DHT22;334;48.808;9.222;2023-06-22T05:08:53;24.00;1.00
702;DHT22;334;48.808;9.222;2023-06-22T05:10:00;24.00;1.00
702;DHT22;334;48.808;9.222;2023-06-22T05:11:02;24.00;1.00
702;DHT22;334;48.808;9.222;2023-06-22T05:12:07;24.10;1.00
702;DHT22;334;48.808;9.222;2023-06-22T05:13:11;24.10;1.00
702;DHT22;334;48.808;9.222;2023-06-22T05:14:16;24.10;1.00
702;DHT22;334;48.808;9.222;2023-06-22T05:15:18;24.10;1.00
702;DHT22;334;48.808;9.222;2023-06-22T05:16:41;24.20;1.00
702;DHT22;334;48.808;9.222;2023-06-22T05:17:43;24.20;1.00
702;DHT22;334;48.808;9.222;2023-06-22T05:18:53;24.20;1.00
702;DHT22;334;48.808;9.222;2023-06-22T05:19:55;24.20;1.00
702;DHT22;334;48.808;9.222;2023-06-22T05:20:58;24.20;1.00
702;DHT22;334;48.808;9.222;2023-06-22T05:22:03;24.30;1.00
702;DHT22;334;48.808;9.222;2023-06-22T05:23:08;24.30;1.00
702;DHT22;334;48.808;9.222;2023-06-22T05:24:09;24.30;1.00
702;DHT22;334;48.808;9.222;2023-06-22T05:25:12;24.30;1.00
702;DHT22;334;48.808;9.222;2023-06-22T05:26:14;24.30;1.00
702;DHT22;334;48.808;9.222;2023-06-22T05:27:16;24.30;1.00
702;DHT22;334;48.808;9.222;2023-06-22T05:28:18;24.30;1.00
702;DHT22;334;48.808;9.222;2023-06-22T05:29:24;24.30;1.00
702;DHT22;334;48.808;9.222;2023-06-22T05:30:27;24.30;1.00
702;DHT22;334;48.808;9.222;2023-06-22T05:31:29;24.30;1.00
702;DHT22;334;48.808;9.222;2023-06-22T05:32:32;24.30;1.00
702;DHT22;334;48.808;9.222;2023-06-22T05:33:34;24.30;1.00
702;DHT22;334;48.808;9.222;2023-06-22T05:34:36;24.30;1.00
702;DHT22;334;48.808;9.222;2023-06-22T05:35:38;24.40;1.00
702;DHT22;334;48.808;9.222;2023-06-22T05:36:39;24.40;1.00
702;DHT22;334;48.808;9.222;2023-06-22T05:37:42;24.40;1.00
702;DHT22;334;48.808;9.222;2023-06-22T05:38:44;24.50;1.00
702;DHT22;334;48.808;9.222;2023-06-22T05:39:46;24.50;1.00
702;DHT22;334;48.808;9.222;2023-06-22T05:40:47;24.50;1.00
702;DHT22;334;48.808;9.222;2023-06-22T05:41:49;24.60;1.00
702;DHT22;334;48.808;9.222;2023-06-22T05:42:51;24.60;1.00
702;DHT22;334;48.808;9.222;2023-06-22T05:43:54;24.60;1.00
702;DHT22;334;48.808;9.222;2023-06-22T05:44:56;24.70;1.00
702;DHT22;334;48.808;9.222;2023-06-22T05:46:01;24.70;1.00
702;DHT22;334;48.808;9.222;2023-06-22T05:47:03;24.80;1.00
702;DHT22;334;48.808;9.222;2023-06-22T05:48:05;24.80;1.00
702;DHT22;334;48.808;9.222;2023-06-22T05:49:07;24.90;1.00
702;DHT22;334;48.808;9.222;2023-06-22T05:50:09;24.90;1.00
702;DHT22;334;48.808;9.222;2023-06-22T05:51:14;24.90;1.00
702;DHT22;334;48.808;9.222;2023-06-22T05:52:16;25.00;1.00
702;DHT22;334;48.808;9.222;2023-06-22T05:53:17;25.00;1.00
702;DHT22;334;48.808;9.222;2023-06-22T05:54:19;25.10;1.00
702;DHT22;334;48.808;9.222;2023-06-22T05:55:21;25.10;1.00
702;DHT22;334;48.808;9.222;2023-06-22T05:56:23;25.30;1.00
702;DHT22;334;48.808;9.222;2023-06-22T05:57:25;25.20;1.00
702;DHT22;334;48.808;9.222;2023-06-22T05:58:28;25.20;1.00
702;DHT22;334;48.808;9.222;2023-06-22T05:59:30;25.30;1.00
702;DHT22;334;48.808;9.222;2023-06-22T06:00:32;25.30;1.00
702;DHT22;334;48.808;9.222;2023-06-22T06:01:35;25.30;1.00
702;DHT22;334;48.808;9.222;2023-06-22T06:02:37;25.40;1.00
702;DHT22;334;48.808;9.222;2023-06-22T06:03:45;25.40;1.00
702;DHT22;334;48.808;9.222;2023-06-22T06:04:47;25.60;1.00
702;DHT22;334;48.808;9.222;2023-06-22T06:05:49;25.50;1.00
702;DHT22;334;48.808;9.222;2023-06-22T06:06:51;25.50;1.00
702;DHT22;334;48.808;9.222;2023-06-22T06:07:52;25.50;1.00
702;DHT22;334;48.808;9.222;2023-06-22T06:08:54;25.50;1.00
702;DHT22;334;48.808;9.222;2023-06-22T06:09:57;25.50;1.00
702;DHT22;334;48.808;9.222;2023-06-22T06:10:59;25.50;1.00
702;DHT22;334;48.808;9.222;2023-06-22T06:12:01;25.40;1.00
702;DHT22;334;48.808;9.222;2023-06-22T06:13:05;25.40;1.00
702;DHT22;334;48.808;9.222;2023-06-22T06:14:07;25.40;1.00
702;DHT22;334;48.808;9.222;2023-06-22T06:15:17;25.40;1.00
702;DHT22;334;48.808;9.222;2023-06-22T06:16:19;25.40;1.00
702;DHT22;334;48.808;9.222;2023-06-22T06:17:21;25.40;1.00
702;DHT22;334;48.808;9.222;2023-06-22T06:18:23;25.40;1.00
702;DHT22;334;48.808;9.222;2023-06-22T06:19:25;25.40;1.00
702;DHT22;334;48.808;9.222;2023-06-22T06:20:27;25.50;1.00
702;DHT22;334;48.808;9.222;2023-06-22T06:21:36;25.50;1.00
702;DHT22;334;48.808;9.222;2023-06-22T06:22:37;25.50;1.00
702;DHT22;334;48.808;9.222;2023-06-22T06:23:39;25.70;1.00
702;DHT22;334;48.808;9.222;2023-06-22T06:24:41;25.60;1.00
702;DHT22;334;48.808;9.222;2023-06-22T06:25:43;25.70;1.00
702;DHT22;334;48.808;9.222;2023-06-22T06:26:44;25.70;1.00
702;DHT22;334;48.808;9.222;2023-06-22T06:27:46;25.80;1.00
702;DHT22;334;48.808;9.222;2023-06-22T06:28:49;25.90;1.00
702;DHT22;334;48.808;9.222;2023-06-22T06:29:51;26.00;1.00
702;DHT22;334;48.808;9.222;2023-06-22T06:30:52;26.00;1.00
702;DHT22;334;48.808;9.222;2023-06-22T06:31:54;26.10;1.00
702;DHT22;334;48.808;9.222;2023-06-22T06:32:56;26.20;1.00
702;DHT22;334;48.808;9.222;2023-06-22T06:33:58;26.30;1.00
702;DHT22;334;48.808;9.222;2023-06-22T06:35:00;26.40;1.00
702;DHT22;334;48.808;9.222;2023-06-22T06:36:02;26.40;1.00
702;DHT22;334;48.808;9.222;2023-06-22T06:37:05;26.50;1.00
702;DHT22;334;48.808;9.222;2023-06-22T06:38:06;26.50;1.00
702;DHT22;334;48.808;9.222;2023-06-22T06:39:08;26.60;1.00
702;DHT22;334;48.808;9.222;2023-06-22T06:40:12;26.70;1.00
702;DHT22;334;48.808;9.222;2023-06-22T06:41:16;26.70;1.00
702;DHT22;334;48.808;9.222;2023-06-22T06:42:18;26.70;1.00
702;DHT22;334;48.808;9.222;2023-06-22T06:43:21;26.80;1.00
702;DHT22;334;48.808;9.222;2023-06-22T06:44:22;26.80;1.00
702;DHT22;334;48.808;9.222;2023-06-22T06:45:25;26.80;1.00
702;DHT22;334;48.808;9.222;2023-06-22T06:46:30;26.90;1.00
702;DHT22;334;48.808;9.222;2023-06-22T06:47:32;27.00;1.00
702;DHT22;334;48.808;9.222;2023-06-22T06:48:33;27.00;1.00
702;DHT22;334;48.808;9.222;2023-06-22T06:49:35;27.00;1.00
702;DHT22;334;48.808;9.222;2023-06-22T06:50:37;27.10;1.00
702;DHT22;334;48.808;9.222;2023-06-22T06:51:41;27.10;1.00
702;DHT22;334;48.808;9.222;2023-06-22T06:52:43;27.10;1.00
702;DHT22;334;48.808;9.222;2023-06-22T06:53:46;27.10;1.00
702;DHT22;334;48.808;9.222;2023-06-22T06:54:47;27.20;1.00
702;DHT22;334;48.808;9.222;2023-06-22T06:55:49;27.20;1.00
702;DHT22;334;48.808;9.222;2023-06-22T06:56:51;27.20;1.00
702;DHT22;334;48.808;9.222;2023-06-22T06:57:57;27.30;1.00
702;DHT22;334;48.808;9.222;2023-06-22T06:59:01;27.40;1.00
702;DHT22;334;48.808;9.222;2023-06-22T07:00:05;27.40;1.00
702;DHT22;334;48.808;9.222;2023-06-22T07:01:14;27.40;1.00
702;DHT22;334;48.808;9.222;2023-06-22T07:02:16;27.50;1.00
702;DHT22;334;48.808;9.222;2023-06-22T07:03:18;27.40;1.00
702;DHT22;334;48.808;9.222;2023-06-22T07:04:21;27.50;1.00
702;DHT22;334;48.808;9.222;2023-06-22T07:05:23;27.50;1.00
702;DHT22;334;48.808;9.222;2023-06-22T07:06:25;27.50;1.00
702;DHT22;334;48.808;9.222;2023-06-22T07:07:30;27.50;1.00
702;DHT22;334;48.808;9.222;2023-06-22T07:08:32;27.50;1.00
702;DHT22;334;48.808;9.222;2023-06-22T07:09:34;27.50;1.00
702;DHT22;334;48.808;9.222;2023-06-22T07:10:37;27.60;1.00
702;DHT22;334;48.808;9.222;2023-06-22T07:11:38;27.60;1.00
702;DHT22;334;48.808;9.222;2023-06-22T07:12:40;27.60;1.00
702;DHT22;334;48.808;9.222;2023-06-22T07:13:42;27.60;1.00
702;DHT22;334;48.808;9.222;2023-06-22T07:14:44;27.70;1.00
702;DHT22;334;48.808;9.222;2023-06-22T07:15:46;27.70;1.00
702;DHT22;334;48.808;9.222;2023-06-22T07:16:48;27.70;1.00
702;DHT22;334;48.808;9.222;2023-06-22T07:17:50;27.70;1.00
702;DHT22;334;48.808;9.222;2023-06-22T07:18:51;27.70;1.00
702;DHT22;334;48.808;9.222;2023-06-22T07:19:54;27.70;1.00